sensor_id;sensor_type;location;lat;lon;timestamp;pressure;altitude;pressure_sealevel;temperature;humidity
33265;BME280;31404;53.974;-1.086;2023-02-20T00:00:36;101813.79;;;9.25;95.81
33265;BME280;31404;53.974;-1.086;2023-02-20T00:05:35;101812.41;;;10.04;90.86
33265;BME280;31404;53.974;-1.086;2023-02-20T00:10:34;101806.32;;;7.58;100.00
33265;BME280;31404;53.974;-1.086;2023-02-20T00:15:35;101816.27;;;6.46;100.00
33265;BME280;31404;53.974;-1.086;2023-02-20T00:20:34;101808.07;;;6.10;100.00
33265;BME280;31404;53.974;-1.086;2023-02-20T00:25:34;101806.86;;;5.72;100.00
33265;BME280;31404;53.974;-1.086;2023-02-20T00:30:34;101815.55;;;5.49;100.00
33265;BME280;31404;53.974;-1.086;2023-02-20T00:35:35;101808.29;;;6.10;100.00
33265;BME280;31404;53.974;-1.086;2023-02-20T00:40:35;101819.79;;;6.32;100.00
33265;BME280;31404;53.974;-1.086;2023-02-20T00:45:35;101821.65;;;6.57;100.00
33265;BME280;31404;53.974;-1.086;2023-02-20T00:50:35;101820.16;;;7.14;100.00
33265;BME280;31404;53.974;-1.086;2023-02-20T00:55:34;101813.28;;;6.47;100.00
33265;BME280;31404;53.974;-1.086;2023-02-20T01:00:34;101818.14;;;6.92;100.00
33265;BME280;31404;53.974;-1.086;2023-02-20T01:05:34;101821.87;;;6.45;100.00
33265;BME280;31404;53.974;-1.086;2023-02-20T01:10:34;101820.04;;;6.31;100.00
33265;BME280;31404;53.974;-1.086;2023-02-20T01:15:34;101825.55;;;6.46;100.00
33265;BME280;31404;53.974;-1.086;2023-02-20T01:20:34;101822.38;;;6.09;100.00
33265;BME280;31404;53.974;-1.086;2023-02-20T01:25:34;101820.74;;;5.56;100.00
33265;BME280;31404;53.974;-1.086;2023-02-20T01:30:34;101820.46;;;5.79;100.00
33265;BME280;31404;53.974;-1.086;2023-02-20T01:35:35;101833.04;;;6.36;100.00
33265;BME280;31404;53.974;-1.086;2023-02-20T01:40:35;101832.20;;;6.59;100.00
33265;BME280;31404;53.974;-1.086;2023-02-20T01:45:37;101827.44;;;6.66;100.00
33265;BME280;31404;53.974;-1.086;2023-02-20T01:55:38;101811.20;;;6.96;100.00
33265;BME280;31404;53.974;-1.086;2023-02-20T02:00:35;101807.71;;;6.94;100.00
33265;BME280;31404;53.974;-1.086;2023-02-20T02:05:35;101799.74;;;6.58;100.00
33265;BME280;31404;53.974;-1.086;2023-02-20T02:10:38;101795.45;;;6.27;100.00
33265;BME280;31404;53.974;-1.086;2023-02-20T02:15:35;101794.87;;;6.57;100.00
33265;BME280;31404;53.974;-1.086;2023-02-20T02:40:40;101755.45;;;6.96;100.00
33265;BME280;31404;53.974;-1.086;2023-02-20T02:50:37;101734.38;;;6.77;100.00
33265;BME280;31404;53.974;-1.086;2023-02-20T02:55:36;101724.05;;;7.02;100.00
33265;BME280;31404;53.974;-1.086;2023-02-20T03:00:38;101720.66;;;7.16;100.00
33265;BME280;31404;53.974;-1.086;2023-02-20T03:05:38;101715.34;;;6.85;100.00
33265;BME280;31404;53.974;-1.086;2023-02-20T03:10:35;101727.57;;;7.03;100.00
33265;BME280;31404;53.974;-1.086;2023-02-20T03:20:34;101709.65;;;8.05;100.00
33265;BME280;31404;53.974;-1.086;2023-02-20T03:25:36;101715.89;;;8.53;100.00
33265;BME280;31404;53.974;-1.086;2023-02-20T03:35:37;101723.92;;;7.84;100.00
33265;BME280;31404;53.974;-1.086;2023-02-20T03:40:35;101711.18;;;8.16;100.00
33265;BME280;31404;53.974;-1.086;2023-02-20T03:50:35;101717.12;;;7.82;100.00
33265;BME280;31404;53.974;-1.086;2023-02-20T03:55:35;101722.15;;;7.82;100.00
33265;BME280;31404;53.974;-1.086;2023-02-20T04:05:37;101727.72;;;7.27;100.00
33265;BME280;31404;53.974;-1.086;2023-02-20T04:15:35;101716.31;;;7.64;100.00
33265;BME280;31404;53.974;-1.086;2023-02-20T04:20:35;101720.87;;;7.50;100.00
33265;BME280;31404;53.974;-1.086;2023-02-20T04:30:34;101726.31;;;7.25;100.00
33265;BME280;31404;53.974;-1.086;2023-02-20T04:35:34;101725.00;;;7.14;100.00
33265;BME280;31404;53.974;-1.086;2023-02-20T04:40:35;101734.85;;;7.56;100.00
33265;BME280;31404;53.974;-1.086;2023-02-20T04:45:35;101734.41;;;7.05;100.00
33265;BME280;31404;53.974;-1.086;2023-02-20T04:50:35;101748.05;;;6.54;100.00
33265;BME280;31404;53.974;-1.086;2023-02-20T04:55:35;101752.50;;;6.35;100.00
33265;BME280;31404;53.974;-1.086;2023-02-20T05:00:35;101756.07;;;6.54;100.00
33265;BME280;31404;53.974;-1.086;2023-02-20T05:05:35;101750.02;;;6.80;100.00
33265;BME280;31404;53.974;-1.086;2023-02-20T05:10:35;101764.70;;;7.19;100.00
33265;BME280;31404;53.974;-1.086;2023-02-20T05:15:34;101759.17;;;6.07;100.00
33265;BME280;31404;53.974;-1.086;2023-02-20T05:20:34;101766.36;;;6.60;100.00
33265;BME280;31404;53.974;-1.086;2023-02-20T05:25:34;101765.32;;;6.91;100.00
33265;BME280;31404;53.974;-1.086;2023-02-20T05:30:34;101759.30;;;7.55;100.00
33265;BME280;31404;53.974;-1.086;2023-02-20T05:35:34;101760.12;;;7.47;100.00
33265;BME280;31404;53.974;-1.086;2023-02-20T05:40:34;101762.09;;;6.94;100.00
33265;BME280;31404;53.974;-1.086;2023-02-20T05:45:34;101747.27;;;6.17;100.00
33265;BME280;31404;53.974;-1.086;2023-02-20T05:50:34;101738.57;;;6.27;100.00
33265;BME280;31404;53.974;-1.086;2023-02-20T05:55:34;101742.92;;;7.28;100.00
33265;BME280;31404;53.974;-1.086;2023-02-20T06:00:34;101756.29;;;6.11;100.00
33265;BME280;31404;53.974;-1.086;2023-02-20T06:05:43;101756.37;;;6.04;100.00
33265;BME280;31404;53.974;-1.086;2023-02-20T06:10:35;101744.86;;;5.95;100.00
33265;BME280;31404;53.974;-1.086;2023-02-20T06:15:35;101745.10;;;6.18;100.00
33265;BME280;31404;53.974;-1.086;2023-02-20T06:20:34;101740.45;;;5.83;100.00
33265;BME280;31404;53.974;-1.086;2023-02-20T06:25:37;101736.77;;;6.16;100.00
33265;BME280;31404;53.974;-1.086;2023-02-20T06:30:35;101735.88;;;5.67;100.00
33265;BME280;31404;53.974;-1.086;2023-02-20T06:35:35;101730.95;;;5.10;100.00
33265;BME280;31404;53.974;-1.086;2023-02-20T06:40:35;101727.19;;;4.89;100.00
33265;BME280;31404;53.974;-1.086;2023-02-20T06:45:35;101747.89;;;5.87;100.00
33265;BME280;31404;53.974;-1.086;2023-02-20T06:50:35;101751.46;;;5.65;100.00
33265;BME280;31404;53.974;-1.086;2023-02-20T06:55:35;101743.44;;;5.27;100.00
33265;BME280;31404;53.974;-1.086;2023-02-20T07:00:35;101728.08;;;5.03;100.00
33265;BME280;31404;53.974;-1.086;2023-02-20T07:05:35;101729.52;;;4.81;100.00
33265;BME280;31404;53.974;-1.086;2023-02-20T07:10:34;101744.48;;;4.59;100.00
33265;BME280;31404;53.974;-1.086;2023-02-20T07:15:35;101730.20;;;4.87;100.00
33265;BME280;31404;53.974;-1.086;2023-02-20T07:20:35;101730.88;;;5.14;100.00
33265;BME280;31404;53.974;-1.086;2023-02-20T07:25:35;101734.02;;;4.91;100.00
33265;BME280;31404;53.974;-1.086;2023-02-20T07:30:35;101726.35;;;4.92;100.00
33265;BME280;31404;53.974;-1.086;2023-02-20T07:35:35;101719.80;;;5.00;100.00
33265;BME280;31404;53.974;-1.086;2023-02-20T07:40:35;101727.93;;;5.85;100.00
33265;BME280;31404;53.974;-1.086;2023-02-20T07:45:35;101716.52;;;4.79;100.00
33265;BME280;31404;53.974;-1.086;2023-02-20T07:50:35;101711.39;;;5.16;100.00
33265;BME280;31404;53.974;-1.086;2023-02-20T07:55:35;101709.08;;;5.33;100.00
33265;BME280;31404;53.974;-1.086;2023-02-20T08:00:35;101705.17;;;4.62;100.00
33265;BME280;31404;53.974;-1.086;2023-02-20T08:05:35;101696.98;;;4.70;100.00
33265;BME280;31404;53.974;-1.086;2023-02-20T08:10:35;101704.37;;;5.29;100.00
33265;BME280;31404;53.974;-1.086;2023-02-20T08:15:34;101710.48;;;4.76;100.00
33265;BME280;31404;53.974;-1.086;2023-02-20T08:20:34;101709.38;;;5.34;100.00
33265;BME280;31404;53.974;-1.086;2023-02-20T08:25:35;101724.37;;;5.87;100.00
33265;BME280;31404;53.974;-1.086;2023-02-20T08:30:35;101737.54;;;6.14;100.00
33265;BME280;31404;53.974;-1.086;2023-02-20T08:35:35;101736.48;;;5.67;100.00
33265;BME280;31404;53.974;-1.086;2023-02-20T08:40:34;101744.78;;;6.13;100.00
33265;BME280;31404;53.974;-1.086;2023-02-20T08:45:34;101744.14;;;5.93;100.00
33265;BME280;31404;53.974;-1.086;2023-02-20T08:50:34;101743.45;;;6.34;100.00
33265;BME280;31404;53.974;-1.086;2023-02-20T08:55:35;101743.41;;;5.94;100.00
33265;BME280;31404;53.974;-1.086;2023-02-20T09:00:35;101743.81;;;6.04;100.00
33265;BME280;31404;53.974;-1.086;2023-02-20T09:05:35;101751.02;;;6.19;100.00
33265;BME280;31404;53.974;-1.086;2023-02-20T09:10:35;101751.76;;;5.95;100.00
33265;BME280;31404;53.974;-1.086;2023-02-20T09:15:35;101757.80;;;6.02;100.00
33265;BME280;31404;53.974;-1.086;2023-02-20T09:20:35;101766.20;;;5.88;100.00
33265;BME280;31404;53.974;-1.086;2023-02-20T09:25:35;101753.04;;;6.38;100.00
33265;BME280;31404;53.974;-1.086;2023-02-20T09:30:34;101751.75;;;6.22;100.00
33265;BME280;31404;53.974;-1.086;2023-02-20T09:35:34;101744.70;;;6.35;100.00
33265;BME280;31404;53.974;-1.086;2023-02-20T09:40:34;101738.87;;;6.36;100.00
33265;BME280;31404;53.974;-1.086;2023-02-20T09:45:36;101744.40;;;6.49;100.00
33265;BME280;31404;53.974;-1.086;2023-02-20T09:50:36;101748.70;;;6.57;100.00
33265;BME280;31404;53.974;-1.086;2023-02-20T10:00:35;101743.08;;;6.59;100.00
33265;BME280;31404;53.974;-1.086;2023-02-20T10:05:36;101744.30;;;6.77;100.00
33265;BME280;31404;53.974;-1.086;2023-02-20T10:10:34;101747.59;;;7.52;100.00
33265;BME280;31404;53.974;-1.086;2023-02-20T10:15:39;101749.79;;;7.01;100.00
33265;BME280;31404;53.974;-1.086;2023-02-20T10:25:37;101765.07;;;7.94;100.00
33265;BME280;31404;53.974;-1.086;2023-02-20T10:35:38;101759.16;;;8.20;100.00
33265;BME280;31404;53.974;-1.086;2023-02-20T10:40:39;101762.53;;;7.68;100.00
33265;BME280;31404;53.974;-1.086;2023-02-20T10:50:39;101766.04;;;7.85;100.00
33265;BME280;31404;53.974;-1.086;2023-02-20T11:00:38;101776.88;;;8.33;100.00
33265;BME280;31404;53.974;-1.086;2023-02-20T11:10:34;101773.70;;;8.92;100.00
33265;BME280;31404;53.974;-1.086;2023-02-20T11:15:35;101781.84;;;8.05;100.00
33265;BME280;31404;53.974;-1.086;2023-02-20T11:25:36;101791.65;;;7.91;100.00
33265;BME280;31404;53.974;-1.086;2023-02-20T11:30:37;101795.00;;;7.73;100.00
33265;BME280;31404;53.974;-1.086;2023-02-20T11:35:36;101797.29;;;8.19;100.00
33265;BME280;31404;53.974;-1.086;2023-02-20T11:40:35;101799.61;;;8.08;100.00
33265;BME280;31404;53.974;-1.086;2023-02-20T11:45:35;101781.35;;;8.35;100.00
33265;BME280;31404;53.974;-1.086;2023-02-20T11:55:34;101790.78;;;7.43;100.00
33265;BME280;31404;53.974;-1.086;2023-02-20T12:05:38;101786.00;;;8.38;100.00
33265;BME280;31404;53.974;-1.086;2023-02-20T12:10:38;101781.37;;;8.68;100.00
33265;BME280;31404;53.974;-1.086;2023-02-20T12:15:34;101777.19;;;7.70;100.00
33265;BME280;31404;53.974;-1.086;2023-02-20T12:20:36;101763.17;;;8.77;100.00
33265;BME280;31404;53.974;-1.086;2023-02-20T12:25:40;101766.60;;;7.70;100.00
33265;BME280;31404;53.974;-1.086;2023-02-20T12:35:36;101767.16;;;8.80;100.00
33265;BME280;31404;53.974;-1.086;2023-02-20T13:00:38;101743.06;;;8.20;100.00
33265;BME280;31404;53.974;-1.086;2023-02-20T13:05:40;101737.92;;;8.06;100.00
33265;BME280;31404;53.974;-1.086;2023-02-20T13:15:39;101727.81;;;7.24;100.00
33265;BME280;31404;53.974;-1.086;2023-02-20T13:25:38;101736.05;;;7.17;100.00
33265;BME280;31404;53.974;-1.086;2023-02-20T13:30:35;101734.82;;;6.79;100.00
33265;BME280;31404;53.974;-1.086;2023-02-20T13:40:37;101728.17;;;7.25;100.00
33265;BME280;31404;53.974;-1.086;2023-02-20T13:45:38;101721.67;;;7.14;100.00
33265;BME280;31404;53.974;-1.086;2023-02-20T13:50:35;101717.35;;;7.57;100.00
33265;BME280;31404;53.974;-1.086;2023-02-20T13:55:35;101705.70;;;7.35;100.00
33265;BME280;31404;53.974;-1.086;2023-02-20T14:05:35;101700.78;;;6.26;100.00
33265;BME280;31404;53.974;-1.086;2023-02-20T14:10:36;101703.36;;;6.24;100.00
33265;BME280;31404;53.974;-1.086;2023-02-20T14:20:36;101667.11;;;6.70;100.00
33265;BME280;31404;53.974;-1.086;2023-02-20T14:25:34;101663.02;;;6.52;100.00
33265;BME280;31404;53.974;-1.086;2023-02-20T14:30:34;101661.41;;;7.31;100.00
33265;BME280;31404;53.974;-1.086;2023-02-20T14:40:40;101672.41;;;6.97;100.00
33265;BME280;31404;53.974;-1.086;2023-02-20T14:45:35;101685.80;;;6.64;100.00
33265;BME280;31404;53.974;-1.086;2023-02-20T14:50:35;101683.01;;;7.04;100.00
33265;BME280;31404;53.974;-1.086;2023-02-20T14:55:34;101684.78;;;7.20;100.00
33265;BME280;31404;53.974;-1.086;2023-02-20T15:00:36;101692.68;;;7.31;100.00
33265;BME280;31404;53.974;-1.086;2023-02-20T15:05:34;101691.11;;;7.91;100.00
33265;BME280;31404;53.974;-1.086;2023-02-20T15:10:38;101708.88;;;8.08;100.00
33265;BME280;31404;53.974;-1.086;2023-02-20T15:15:37;101713.11;;;7.38;100.00
33265;BME280;31404;53.974;-1.086;2023-02-20T15:20:37;101723.30;;;7.70;100.00
33265;BME280;31404;53.974;-1.086;2023-02-20T15:25:35;101725.37;;;8.71;100.00
33265;BME280;31404;53.974;-1.086;2023-02-20T15:30:37;101742.35;;;8.43;100.00
33265;BME280;31404;53.974;-1.086;2023-02-20T15:35:34;101744.08;;;7.21;100.00
33265;BME280;31404;53.974;-1.086;2023-02-20T15:40:34;101742.31;;;7.71;100.00
33265;BME280;31404;53.974;-1.086;2023-02-20T15:45:34;101739.82;;;7.73;100.00
33265;BME280;31404;53.974;-1.086;2023-02-20T15:50:34;101750.22;;;7.42;100.00
33265;BME280;31404;53.974;-1.086;2023-02-20T15:55:34;101748.51;;;7.57;100.00
33265;BME280;31404;53.974;-1.086;2023-02-20T16:00:34;101747.52;;;7.61;100.00
33265;BME280;31404;53.974;-1.086;2023-02-20T16:05:34;101754.84;;;7.68;100.00
33265;BME280;31404;53.974;-1.086;2023-02-20T16:10:34;101755.15;;;7.04;100.00
33265;BME280;31404;53.974;-1.086;2023-02-20T16:15:34;101747.76;;;7.32;100.00
33265;BME280;31404;53.974;-1.086;2023-02-20T16:20:34;101752.71;;;7.08;100.00
33265;BME280;31404;53.974;-1.086;2023-02-20T16:25:34;101749.74;;;6.80;100.00
33265;BME280;31404;53.974;-1.086;2023-02-20T16:30:36;101748.98;;;7.58;100.00
33265;BME280;31404;53.974;-1.086;2023-02-20T16:35:35;101752.67;;;8.27;100.00
33265;BME280;31404;53.974;-1.086;2023-02-20T16:40:35;101749.68;;;9.75;100.00
33265;BME280;31404;53.974;-1.086;2023-02-20T16:45:34;101760.66;;;10.25;100.00
33265;BME280;31404;53.974;-1.086;2023-02-20T16:50:34;101757.95;;;9.05;100.00
33265;BME280;31404;53.974;-1.086;2023-02-20T16:55:36;101749.93;;;9.11;100.00
33265;BME280;31404;53.974;-1.086;2023-02-20T17:00:36;101754.02;;;7.42;100.00
33265;BME280;31404;53.974;-1.086;2023-02-20T17:05:37;101757.27;;;7.70;100.00
33265;BME280;31404;53.974;-1.086;2023-02-20T17:10:34;101752.94;;;7.77;100.00
33265;BME280;31404;53.974;-1.086;2023-02-20T17:15:35;101752.18;;;8.20;100.00
33265;BME280;31404;53.974;-1.086;2023-02-20T17:20:34;101750.67;;;8.14;100.00
33265;BME280;31404;53.974;-1.086;2023-02-20T17:25:35;101749.63;;;7.60;100.00
33265;BME280;31404;53.974;-1.086;2023-02-20T17:30:40;101747.61;;;7.09;100.00
33265;BME280;31404;53.974;-1.086;2023-02-20T17:35:35;101744.63;;;7.84;100.00
33265;BME280;31404;53.974;-1.086;2023-02-20T17:40:35;101752.97;;;8.95;100.00
33265;BME280;31404;53.974;-1.086;2023-02-20T17:45:35;101753.10;;;8.92;100.00
33265;BME280;31404;53.974;-1.086;2023-02-20T17:50:35;101762.59;;;9.62;100.00
33265;BME280;31404;53.974;-1.086;2023-02-20T17:55:35;101766.92;;;9.84;100.00
33265;BME280;31404;53.974;-1.086;2023-02-20T18:00:35;101763.85;;;9.17;100.00
33265;BME280;31404;53.974;-1.086;2023-02-20T18:05:36;101762.64;;;10.21;100.00
33265;BME280;31404;53.974;-1.086;2023-02-20T18:10:35;101771.38;;;10.49;100.00
33265;BME280;31404;53.974;-1.086;2023-02-20T18:15:36;101776.80;;;9.86;100.00
33265;BME280;31404;53.974;-1.086;2023-02-20T18:20:34;101787.86;;;9.12;100.00
33265;BME280;31404;53.974;-1.086;2023-02-20T18:25:35;101797.16;;;9.77;100.00
33265;BME280;31404;53.974;-1.086;2023-02-20T18:30:35;101797.92;;;9.75;100.00
33265;BME280;31404;53.974;-1.086;2023-02-20T18:35:35;101802.24;;;10.78;100.00
33265;BME280;31404;53.974;-1.086;2023-02-20T18:40:35;101799.91;;;11.22;100.00
33265;BME280;31404;53.974;-1.086;2023-02-20T18:45:35;101799.50;;;10.43;100.00
33265;BME280;31404;53.974;-1.086;2023-02-20T18:50:35;101797.37;;;9.89;100.00
33265;BME280;31404;53.974;-1.086;2023-02-20T18:55:35;101790.50;;;9.89;100.00
33265;BME280;31404;53.974;-1.086;2023-02-20T19:00:34;101787.53;;;8.32;100.00
33265;BME280;31404;53.974;-1.086;2023-02-20T19:05:34;101783.77;;;8.05;100.00
33265;BME280;31404;53.974;-1.086;2023-02-20T19:10:35;101781.34;;;6.88;100.00
33265;BME280;31404;53.974;-1.086;2023-02-20T19:15:35;101771.72;;;6.32;100.00
33265;BME280;31404;53.974;-1.086;2023-02-20T19:20:34;101771.26;;;6.55;100.00
33265;BME280;31404;53.974;-1.086;2023-02-20T19:25:35;101761.67;;;6.04;100.00
33265;BME280;31404;53.974;-1.086;2023-02-20T19:30:34;101752.37;;;5.60;100.00
33265;BME280;31404;53.974;-1.086;2023-02-20T19:35:34;101737.85;;;5.74;100.00
33265;BME280;31404;53.974;-1.086;2023-02-20T19:40:34;101738.75;;;5.69;100.00
33265;BME280;31404;53.974;-1.086;2023-02-20T19:45:35;101733.06;;;5.63;100.00
33265;BME280;31404;53.974;-1.086;2023-02-20T19:50:35;101736.35;;;5.64;100.00
33265;BME280;31404;53.974;-1.086;2023-02-20T19:55:35;101740.44;;;6.96;100.00
33265;BME280;31404;53.974;-1.086;2023-02-20T20:00:36;101747.70;;;7.10;100.00
33265;BME280;31404;53.974;-1.086;2023-02-20T20:05:35;101746.93;;;7.31;100.00
33265;BME280;31404;53.974;-1.086;2023-02-20T20:10:34;101748.39;;;7.14;100.00
33265;BME280;31404;53.974;-1.086;2023-02-20T20:15:35;101753.26;;;7.14;100.00
33265;BME280;31404;53.974;-1.086;2023-02-20T20:20:35;101754.97;;;7.62;100.00
33265;BME280;31404;53.974;-1.086;2023-02-20T20:25:35;101757.32;;;8.01;100.00
33265;BME280;31404;53.974;-1.086;2023-02-20T20:30:41;101749.41;;;10.41;100.00
33265;BME280;31404;53.974;-1.086;2023-02-20T20:35:35;101748.89;;;9.20;100.00
33265;BME280;31404;53.974;-1.086;2023-02-20T20:40:35;101760.68;;;8.79;100.00
33265;BME280;31404;53.974;-1.086;2023-02-20T20:45:36;101755.24;;;9.41;100.00
33265;BME280;31404;53.974;-1.086;2023-02-20T20:50:35;101756.51;;;8.15;100.00
33265;BME280;31404;53.974;-1.086;2023-02-20T20:55:35;101759.25;;;9.48;100.00
33265;BME280;31404;53.974;-1.086;2023-02-20T21:00:34;101770.38;;;9.29;100.00
33265;BME280;31404;53.974;-1.086;2023-02-20T21:05:35;101768.38;;;9.36;100.00
33265;BME280;31404;53.974;-1.086;2023-02-20T21:10:35;101764.06;;;9.03;100.00
33265;BME280;31404;53.974;-1.086;2023-02-20T21:15:35;101753.65;;;9.48;100.00
33265;BME280;31404;53.974;-1.086;2023-02-20T21:20:35;101765.72;;;8.84;100.00
33265;BME280;31404;53.974;-1.086;2023-02-20T21:25:35;101783.73;;;10.64;100.00
33265;BME280;31404;53.974;-1.086;2023-02-20T21:30:35;101783.72;;;10.16;100.00
33265;BME280;31404;53.974;-1.086;2023-02-20T21:35:35;101778.67;;;10.05;100.00
33265;BME280;31404;53.974;-1.086;2023-02-20T21:40:34;101756.18;;;9.29;100.00
33265;BME280;31404;53.974;-1.086;2023-02-20T21:45:34;101764.43;;;8.73;100.00
33265;BME280;31404;53.974;-1.086;2023-02-20T21:50:34;101772.41;;;10.44;100.00
33265;BME280;31404;53.974;-1.086;2023-02-20T21:55:35;101777.18;;;10.23;100.00
33265;BME280;31404;53.974;-1.086;2023-02-20T22:00:34;101773.73;;;8.76;100.00
33265;BME280;31404;53.974;-1.086;2023-02-20T22:05:34;101763.00;;;8.05;100.00
33265;BME280;31404;53.974;-1.086;2023-02-20T22:10:34;101768.60;;;6.59;100.00
33265;BME280;31404;53.974;-1.086;2023-02-20T22:15:34;101760.56;;;6.65;100.00
33265;BME280;31404;53.974;-1.086;2023-02-20T22:20:34;101755.78;;;6.87;100.00
33265;BME280;31404;53.974;-1.086;2023-02-20T22:25:35;101749.65;;;7.39;100.00
33265;BME280;31404;53.974;-1.086;2023-02-20T22:30:34;101757.06;;;7.71;100.00
33265;BME280;31404;53.974;-1.086;2023-02-20T22:35:34;101753.41;;;8.01;100.00
33265;BME280;31404;53.974;-1.086;2023-02-20T22:40:34;101756.73;;;7.99;100.00
33265;BME280;31404;53.974;-1.086;2023-02-20T22:45:34;101758.10;;;7.34;100.00
33265;BME280;31404;53.974;-1.086;2023-02-20T22:50:34;101761.14;;;6.98;100.00
33265;BME280;31404;53.974;-1.086;2023-02-20T22:55:34;101762.14;;;6.58;100.00
33265;BME280;31404;53.974;-1.086;2023-02-20T23:00:34;101760.38;;;7.16;100.00
33265;BME280;31404;53.974;-1.086;2023-02-20T23:05:34;101764.70;;;7.10;100.00
33265;BME280;31404;53.974;-1.086;2023-02-20T23:10:34;101756.73;;;6.46;100.00
33265;BME280;31404;53.974;-1.086;2023-02-20T23:15:35;101759.48;;;5.99;100.00
33265;BME280;31404;53.974;-1.086;2023-02-20T23:20:35;101759.61;;;6.33;100.00
33265;BME280;31404;53.974;-1.086;2023-02-20T23:25:35;101758.50;;;6.56;100.00
33265;BME280;31404;53.974;-1.086;2023-02-20T23:30:35;101754.23;;;6.25;100.00
33265;BME280;31404;53.974;-1.086;2023-02-20T23:35:35;101749.84;;;6.52;100.00
33265;BME280;31404;53.974;-1.086;2023-02-20T23:40:34;101745.65;;;6.30;100.00
33265;BME280;31404;53.974;-1.086;2023-02-20T23:45:34;101741.59;;;6.78;100.00
33265;BME280;31404;53.974;-1.086;2023-02-20T23:50:34;101745.70;;;8.50;100.00
33265;BME280;31404;53.974;-1.086;2023-02-20T23:55:34;101747.15;;;10.13;100.00
